createdAt,value
2019-05-02T00:00:24.906Z,89.75
2019-05-02T00:01:24.906Z,90.03
2019-05-02T00:02:28.842Z,89.75
2019-05-02T00:03:28.407Z,90.80
2019-05-02T00:04:25.400Z,90.99
2019-05-02T00:05:27.339Z,91.17
2019-05-02T00:06:25.406Z,91.17
2019-05-02T00:07:25.907Z,91.56
2019-05-02T00:08:33.090Z,90.99
2019-05-02T00:09:25.906Z,90.42
2019-05-02T00:10:26.083Z,90.03
2019-05-02T00:11:26.408Z,89.75
2019-05-02T00:12:26.408Z,89.27
2019-05-02T00:13:26.413Z,89.75
2019-05-02T00:14:30.412Z,89.18
2019-05-02T00:15:26.905Z,89.47
2019-05-02T00:16:26.909Z,89.94
2019-05-02T00:17:27.523Z,89.56
2019-05-02T00:18:26.912Z,89.94
2019-05-02T00:19:27.405Z,90.28
2019-05-02T00:20:30.405Z,90.28
2019-05-02T00:21:27.405Z,90.22
2019-05-02T00:22:27.428Z,90.28
2019-05-02T00:23:29.217Z,90.66
2019-05-02T00:24:27.905Z,91.13
2019-05-02T00:25:30.908Z,90.94
2019-05-02T00:26:27.905Z,91.17
2019-05-02T00:27:49.413Z,90.99
2019-05-02T00:28:28.408Z,90.94
2019-05-02T00:29:29.839Z,91.37
2019-05-02T00:30:34.698Z,90.89
2019-05-02T00:31:28.925Z,90.80
2019-05-02T00:32:28.906Z,90.42
2019-05-02T00:33:29.235Z,89.89
2019-05-02T00:34:28.905Z,89.14
2019-05-02T00:35:32.905Z,89.42
2019-05-02T00:36:29.411Z,89.42
2019-05-02T00:37:30.338Z,89.23
2019-05-02T00:38:33.454Z,89.32
2019-05-02T00:39:50.939Z,89.23
2019-05-02T00:40:31.905Z,89.32
2019-05-02T00:41:37.872Z,89.80
2019-05-02T00:42:31.906Z,88.94
2019-05-02T00:43:34.339Z,89.80
2019-05-02T00:44:51.403Z,89.51
2019-05-02T00:45:55.107Z,89.42
2019-05-02T00:46:35.027Z,89.23
2019-05-02T00:47:30.404Z,89.32
2019-05-02T00:48:54.266Z,89.70
2019-05-02T00:49:30.977Z,90.66
2019-05-02T00:50:30.903Z,91.03
2019-05-02T00:51:30.923Z,90.75
2019-05-02T00:52:36.625Z,90.56
2019-05-02T00:53:52.400Z,90.94
2019-05-02T00:54:31.403Z,90.66
2019-05-02T00:55:33.874Z,90.75
2019-05-02T00:56:31.904Z,90.94
2019-05-02T00:59:08.816Z,89.61
2019-05-02T01:00:28.655Z,89.42
2019-05-02T01:01:07.647Z,89.04
2019-05-02T01:02:07.646Z,89.14
2019-05-02T01:03:15.829Z,89.99
2019-05-02T01:04:30.581Z,89.80
2019-05-02T01:05:08.148Z,89.89
2019-05-02T01:06:13.627Z,90.66
2019-05-02T01:07:08.645Z,90.84
2019-05-02T01:08:13.081Z,90.47
2019-05-02T01:09:11.186Z,89.99
2019-05-02T01:10:08.656Z,90.08
2019-05-02T01:11:10.079Z,90.18
2019-05-02T01:12:10.015Z,90.28
2019-05-02T01:13:09.151Z,89.99
2019-05-02T01:14:13.145Z,89.99
2019-05-02T01:16:40.881Z,90.08
2019-05-02T01:17:40.916Z,89.99
2019-05-02T01:18:41.361Z,89.80
2019-05-02T01:19:47.322Z,90.18
2019-05-02T01:20:41.396Z,90.56
2019-05-02T01:21:41.398Z,89.99
2019-05-02T01:22:41.389Z,90.28
2019-05-02T01:23:41.892Z,90.08
2019-05-02T01:24:41.889Z,90.84
2019-05-02T01:25:47.379Z,90.75
2019-05-02T01:26:41.887Z,90.37
2019-05-02T01:27:42.615Z,89.99
2019-05-02T01:28:42.389Z,90.08
2019-05-02T01:29:42.389Z,89.89
2019-05-02T01:30:43.826Z,90.47
2019-05-02T01:33:18.188Z,90.66
2019-05-02T01:34:19.323Z,90.37
2019-05-02T01:35:18.194Z,90.37
2019-05-02T01:36:18.697Z,91.03
2019-05-02T01:37:22.197Z,90.70
2019-05-02T01:38:18.761Z,90.80
2019-05-02T01:39:18.698Z,90.56
2019-05-02T01:40:19.194Z,89.80
2019-05-02T01:41:19.197Z,90.37
2019-05-02T01:42:19.194Z,89.80
2019-05-02T01:43:24.464Z,89.80
2019-05-02T01:44:40.695Z,89.23
2019-05-02T01:45:19.696Z,89.99
2019-05-02T01:46:22.166Z,89.89
2019-05-02T01:48:54.801Z,89.04
2019-05-02T01:49:51.989Z,89.37
2019-05-02T01:50:51.311Z,89.23
2019-05-02T01:51:53.810Z,89.18
2019-05-02T01:52:53.763Z,89.28
2019-05-02T01:53:51.807Z,90.14
2019-05-02T01:54:55.822Z,89.70
2019-05-02T01:55:57.696Z,89.28
2019-05-02T01:56:52.325Z,89.28
2019-05-02T01:57:52.310Z,89.75
2019-05-02T01:58:53.073Z,89.85
2019-05-02T01:59:52.810Z,90.23
2019-05-02T02:00:56.310Z,89.99
2019-05-02T02:02:13.811Z,90.23
2019-05-02T02:02:52.810Z,90.33
2019-05-02T02:03:53.309Z,90.70
2019-05-02T02:06:28.674Z,90.70
2019-05-02T02:07:25.630Z,90.80
2019-05-02T02:08:27.491Z,91.85
2019-05-02T02:09:25.176Z,90.70
2019-05-02T02:10:25.176Z,90.70
2019-05-02T02:11:33.947Z,90.23
2019-05-02T02:12:25.176Z,90.23
2019-05-02T02:13:25.682Z,90.80
2019-05-02T02:14:25.677Z,90.61
2019-05-02T02:15:29.057Z,90.61
2019-05-02T02:16:25.675Z,90.61
2019-05-02T02:17:29.688Z,91.18
2019-05-02T02:18:27.627Z,91.18
2019-05-02T02:19:26.188Z,90.61
2019-05-02T02:20:26.178Z,90.70
2019-05-02T02:21:27.662Z,90.23
2019-05-02T02:22:26.680Z,90.70
2019-05-02T02:23:30.652Z,90.89
2019-05-02T02:24:26.676Z,90.99
2019-05-02T02:25:27.179Z,91.47
2019-05-02T02:26:27.175Z,91.56
2019-05-02T02:27:27.181Z,91.28
2019-05-02T02:28:32.332Z,92.03
2019-05-02T02:29:27.676Z,91.85
2019-05-02T02:30:48.676Z,91.28
2019-05-02T02:31:27.675Z,91.85
2019-05-02T02:32:28.707Z,90.70
2019-05-02T02:33:28.176Z,90.70
2019-05-02T02:34:32.577Z,90.70
2019-05-02T02:35:28.180Z,90.52
2019-05-02T02:36:34.541Z,90.14
2019-05-02T02:37:28.674Z,90.70
2019-05-02T02:38:49.672Z,90.70
2019-05-02T02:39:28.683Z,90.52
2019-05-02T02:40:33.732Z,90.89
2019-05-02T02:41:29.173Z,90.80
2019-05-02T02:42:31.755Z,90.99
2019-05-02T02:43:34.377Z,89.85
2019-05-02T02:44:33.523Z,89.66
2019-05-02T02:45:33.217Z,89.18
2019-05-02T02:46:30.628Z,89.66
2019-05-02T02:47:31.705Z,89.18
2019-05-02T02:48:34.052Z,89.75
2019-05-02T02:49:55.737Z,89.66
2019-05-02T02:50:30.213Z,89.85
2019-05-02T02:51:34.175Z,89.66
2019-05-02T02:52:30.174Z,90.14
2019-05-02T02:53:30.708Z,89.75
2019-05-02T02:54:36.320Z,90.14
2019-05-02T02:55:30.673Z,90.04
2019-05-02T02:56:34.441Z,90.14
2019-05-02T02:59:28.082Z,90.33
2019-05-02T03:00:26.648Z,90.23
2019-05-02T03:01:05.645Z,90.23
2019-05-02T03:02:27.153Z,90.52
2019-05-02T03:03:09.649Z,89.94
2019-05-02T03:04:09.105Z,89.75
2019-05-02T03:05:06.144Z,89.75
2019-05-02T03:06:08.190Z,89.37
2019-05-02T03:07:28.895Z,89.37
2019-05-02T03:08:07.232Z,89.66
2019-05-02T03:09:31.644Z,89.66
2019-05-02T03:10:08.465Z,89.47
2019-05-02T03:11:07.146Z,89.00
2019-05-02T03:12:07.144Z,89.85
2019-05-02T03:13:07.144Z,89.23
2019-05-02T03:14:32.143Z,89.14
2019-05-02T03:15:07.645Z,89.04
2019-05-02T03:16:09.390Z,87.62
2019-05-02T03:17:07.645Z,87.43
2019-05-02T03:18:08.145Z,87.62
2019-05-02T03:19:08.149Z,87.52
2019-05-02T03:20:39.508Z,88.19
2019-05-02T03:21:13.247Z,87.90
2019-05-02T03:22:08.645Z,88.76
2019-05-02T03:23:14.938Z,88.85
2019-05-02T03:24:08.645Z,89.23
2019-05-02T03:25:08.648Z,89.14
2019-05-02T03:26:14.967Z,89.14
2019-05-02T03:27:09.165Z,89.33
2019-05-02T03:28:17.451Z,88.95
2019-05-02T03:29:09.150Z,89.90
2019-05-02T03:30:36.223Z,89.61
2019-05-02T03:31:23.491Z,90.05
2019-05-02T03:32:21.920Z,89.80
2019-05-02T03:33:11.761Z,89.90
2019-05-02T03:34:47.877Z,88.95
2019-05-02T03:35:10.147Z,89.71
2019-05-02T03:36:26.157Z,89.33
2019-05-02T03:37:14.023Z,89.80
2019-05-02T03:38:32.593Z,89.61
2019-05-02T03:39:14.928Z,89.71
2019-05-02T03:40:32.201Z,89.71
2019-05-02T03:41:31.649Z,89.90
2019-05-02T03:42:10.645Z,90.00
2019-05-02T03:43:19.034Z,90.37
2019-05-02T03:44:34.142Z,91.04
2019-05-02T03:45:13.075Z,90.56
2019-05-02T03:46:32.143Z,90.47
2019-05-02T03:47:37.127Z,90.85
2019-05-02T03:48:18.130Z,91.04
2019-05-02T03:49:32.641Z,91.89
2019-05-02T03:50:35.258Z,91.99
2019-05-02T03:51:19.942Z,91.89
2019-05-02T03:52:11.694Z,91.33
2019-05-02T03:53:36.647Z,91.61
2019-05-02T03:54:33.141Z,91.71
2019-05-02T03:55:33.979Z,90.47
2019-05-02T03:56:33.143Z,90.94
2019-05-02T03:57:12.140Z,91.04
2019-05-02T03:58:37.145Z,90.75
2019-05-02T03:59:12.641Z,90.56
2019-05-02T04:00:33.641Z,90.00
2019-05-02T04:01:12.655Z,90.33
2019-05-02T04:02:20.174Z,90.56
2019-05-02T04:03:41.076Z,90.47
2019-05-02T04:04:14.069Z,91.61
2019-05-02T04:05:13.141Z,90.66
2019-05-02T04:06:13.785Z,90.89
2019-05-02T04:09:09.375Z,90.89
2019-05-02T04:09:44.881Z,91.94
2019-05-02T04:10:44.883Z,91.28
2019-05-02T04:12:17.747Z,91.94
2019-05-02T04:12:45.390Z,91.37
2019-05-02T04:13:45.383Z,91.37
2019-05-02T04:14:55.597Z,91.28
2019-05-02T04:15:45.885Z,91.37
2019-05-02T04:16:48.713Z,91.75
2019-05-02T04:17:45.883Z,91.85
2019-05-02T04:18:54.701Z,92.32
2019-05-02T04:20:16.882Z,92.41
2019-05-02T04:20:49.777Z,92.51
2019-05-02T04:21:50.373Z,92.89
2019-05-02T04:22:48.944Z,93.37
2019-05-02T04:24:13.703Z,92.89
2019-05-02T04:24:54.512Z,93.37
2019-05-02T04:26:12.842Z,93.75
2019-05-02T04:26:53.811Z,94.13
2019-05-02T04:27:47.378Z,94.42
2019-05-02T04:28:51.834Z,94.42
2019-05-02T04:29:49.324Z,94.79
2019-05-02T04:30:51.341Z,94.70
2019-05-02T04:31:51.381Z,94.60
2019-05-02T04:32:49.576Z,94.79
2019-05-02T04:33:47.881Z,94.22
2019-05-02T04:34:54.647Z,95.12
2019-05-02T04:35:47.880Z,94.79
2019-05-02T04:36:59.830Z,95.03
2019-05-02T04:37:51.381Z,95.08
2019-05-02T04:38:52.176Z,94.79
2019-05-02T04:39:49.299Z,94.22
2019-05-02T04:40:50.337Z,95.03
2019-05-02T04:41:48.882Z,94.65
2019-05-02T04:43:04.839Z,94.84
2019-05-02T04:44:09.879Z,94.22
2019-05-02T04:45:11.629Z,94.32
2019-05-02T04:45:56.130Z,94.13
2019-05-02T04:46:49.388Z,94.42
2019-05-02T04:47:58.435Z,94.03
2019-05-02T04:48:52.491Z,94.79
2019-05-02T04:51:21.579Z,95.17
2019-05-02T04:52:21.608Z,94.98
2019-05-02T04:53:36.779Z,95.65
2019-05-02T04:54:27.678Z,95.75
2019-05-02T04:55:29.183Z,96.03
2019-05-02T04:56:22.085Z,95.75
2019-05-02T04:57:29.169Z,95.27
2019-05-02T04:58:29.552Z,94.98
2019-05-02T04:59:23.526Z,95.27
2019-05-02T05:00:22.588Z,94.70
2019-05-02T05:01:52.747Z,94.89
2019-05-02T05:02:34.299Z,94.89
2019-05-02T05:03:23.091Z,95.03
2019-05-02T05:04:38.819Z,94.98
2019-05-02T05:05:25.493Z,94.89
2019-05-02T05:06:23.590Z,95.03
2019-05-02T05:07:23.595Z,95.22
2019-05-02T05:08:44.596Z,94.84
2019-05-02T05:09:27.941Z,95.22
2019-05-02T05:10:47.975Z,95.12
2019-05-02T05:11:24.895Z,95.03
2019-05-02T05:12:45.087Z,94.37
2019-05-02T05:13:26.469Z,95.03
2019-05-02T05:14:49.086Z,95.12
2019-05-02T05:15:37.160Z,94.84
2019-05-02T05:16:25.520Z,94.74
2019-05-02T05:17:25.222Z,94.84
2019-05-02T05:18:28.555Z,94.65
2019-05-02T05:19:46.086Z,95.32
2019-05-02T05:20:52.961Z,95.12
2019-05-02T05:21:26.689Z,94.74
2019-05-02T05:22:47.879Z,95.32
2019-05-02T05:23:25.587Z,95.56
2019-05-02T05:24:25.585Z,95.75
2019-05-02T05:25:27.691Z,95.98
2019-05-02T05:26:51.086Z,96.22
2019-05-02T05:27:27.492Z,96.50
2019-05-02T05:28:27.271Z,97.03
2019-05-02T05:29:26.993Z,96.94
2019-05-02T05:30:51.870Z,96.55
2019-05-02T05:31:28.612Z,96.84
2019-05-02T05:32:30.086Z,96.17
2019-05-02T05:33:28.390Z,95.79
2019-05-02T05:34:28.650Z,95.60
2019-05-02T05:35:28.121Z,95.60
2019-05-02T05:36:32.556Z,95.79
2019-05-02T05:37:31.082Z,95.70
2019-05-02T05:38:48.585Z,96.08
2019-05-02T05:39:30.544Z,96.36
2019-05-02T05:40:32.114Z,96.94
2019-05-02T05:41:27.929Z,96.26
2019-05-02T05:42:29.992Z,95.98
2019-05-02T05:43:31.085Z,95.89
2019-05-02T05:44:32.505Z,95.89
2019-05-02T05:45:28.084Z,95.79
2019-05-02T05:46:50.545Z,95.41
2019-05-02T05:50:57.998Z,95.32
2019-05-02T05:53:28.182Z,95.98
2019-05-02T05:54:33.113Z,95.79
2019-05-02T05:55:07.887Z,95.98
2019-05-02T05:56:08.195Z,95.89
2019-05-02T05:57:07.663Z,95.89
2019-05-02T05:58:14.663Z,96.08
2019-05-02T05:59:11.277Z,95.98
2019-05-02T06:00:28.762Z,96.17
2019-05-02T06:01:10.170Z,96.94
2019-05-02T06:02:28.765Z,96.79
2019-05-02T06:03:14.054Z,96.12
2019-05-02T06:04:08.260Z,95.65
2019-05-02T06:05:12.259Z,95.65
2019-05-02T06:06:10.110Z,95.36
2019-05-02T06:07:08.258Z,95.65
2019-05-02T06:09:40.001Z,95.36
2019-05-02T06:10:45.171Z,95.08
2019-05-02T06:11:40.002Z,95.65
2019-05-02T06:14:11.741Z,95.46
2019-05-02T06:15:11.744Z,95.17
2019-05-02T06:16:35.239Z,95.27
2019-05-02T06:17:12.244Z,95.17
2019-05-02T06:18:13.705Z,95.36
2019-05-02T06:19:13.041Z,95.17
2019-05-02T06:20:12.242Z,95.12
2019-05-02T06:21:12.741Z,95.03
2019-05-02T06:22:23.921Z,95.12
2019-05-02T06:23:12.743Z,95.41
2019-05-02T06:24:15.673Z,94.93
2019-05-02T06:25:13.245Z,94.37
2019-05-02T06:26:15.193Z,94.27
2019-05-02T06:27:13.243Z,93.89
2019-05-02T06:28:17.242Z,93.13
2019-05-02T06:29:18.679Z,93.60
2019-05-02T06:30:13.743Z,93.70
2019-05-02T06:31:16.692Z,94.27
2019-05-02T06:32:14.041Z,94.27
2019-05-02T06:33:14.243Z,93.98
2019-05-02T06:34:17.243Z,93.84
2019-05-02T06:35:17.135Z,94.32
2019-05-02T06:36:14.242Z,93.89
2019-05-02T06:37:15.703Z,93.51
2019-05-02T06:38:14.743Z,94.13
2019-05-02T06:41:10.993Z,93.60
2019-05-02T06:41:52.161Z,93.03
2019-05-02T06:42:49.996Z,93.46
2019-05-02T06:45:25.732Z,93.55
2019-05-02T06:46:27.692Z,93.84
2019-05-02T06:47:43.738Z,93.74
2019-05-02T06:48:22.742Z,93.84
2019-05-02T06:49:24.279Z,93.93
2019-05-02T06:50:26.738Z,93.46
2019-05-02T06:51:44.240Z,93.37
2019-05-02T06:52:27.174Z,92.98
2019-05-02T06:53:23.239Z,92.36
2019-05-02T06:54:24.121Z,92.17
2019-05-02T06:55:28.197Z,91.36
2019-05-02T06:56:26.739Z,91.98
2019-05-02T06:57:24.295Z,91.88
2019-05-02T06:58:23.738Z,92.46
2019-05-02T06:59:49.931Z,91.03
2019-05-02T07:00:35.360Z,91.13
2019-05-02T07:01:27.738Z,91.88
2019-05-02T07:02:28.216Z,92.17
2019-05-02T07:03:27.504Z,92.17
2019-05-02T07:05:58.893Z,90.50
2019-05-02T07:07:25.046Z,91.17
2019-05-02T07:07:56.112Z,90.98
2019-05-02T07:08:59.432Z,92.12
2019-05-02T07:09:56.639Z,91.27
2019-05-02T07:11:01.383Z,90.22
2019-05-02T07:12:02.075Z,90.45
2019-05-02T07:13:09.981Z,90.73
2019-05-02T07:13:56.207Z,90.17
2019-05-02T07:15:01.561Z,89.88
2019-05-02T07:15:57.143Z,88.92
2019-05-02T07:17:26.675Z,88.78
2019-05-02T07:17:57.608Z,88.01
2019-05-02T07:20:29.911Z,88.01
2019-05-02T07:21:28.976Z,86.58
2019-05-02T07:22:33.229Z,86.87
2019-05-02T07:23:29.482Z,87.15
2019-05-02T07:24:30.569Z,87.39
2019-05-02T07:25:29.476Z,87.48
2019-05-02T07:26:29.477Z,86.82
2019-05-02T07:27:35.446Z,85.48
2019-05-02T07:28:29.978Z,84.72
2019-05-02T07:29:29.974Z,85.10
2019-05-02T07:30:30.232Z,84.62
2019-05-02T07:31:30.475Z,83.09
2019-05-02T07:32:30.473Z,82.81
2019-05-02T07:33:37.516Z,81.89
2019-05-02T07:34:30.483Z,82.84
2019-05-02T07:37:23.718Z,82.37
2019-05-02T07:38:02.728Z,82.28
2019-05-02T07:39:27.228Z,83.23
2019-05-02T07:40:03.229Z,82.84
2019-05-02T07:41:03.229Z,83.84
2019-05-02T07:42:05.987Z,83.75
2019-05-02T07:43:03.263Z,82.60
2019-05-02T07:44:09.163Z,80.59
2019-05-02T07:45:24.730Z,80.69
2019-05-02T07:46:26.184Z,80.79
2019-05-02T07:47:04.682Z,80.50
2019-05-02T07:49:38.967Z,80.25
2019-05-02T07:50:36.439Z,80.16
2019-05-02T07:51:36.416Z,79.29
2019-05-02T07:54:07.162Z,79.96
2019-05-02T07:55:10.671Z,81.40
2019-05-02T07:56:07.169Z,80.54
2019-05-02T07:57:10.103Z,80.54
2019-05-02T07:58:08.307Z,80.77
2019-05-02T07:59:07.673Z,79.24
2019-05-02T08:00:32.051Z,78.09
2019-05-02T08:01:12.936Z,76.56
2019-05-02T08:02:29.169Z,76.37
2019-05-02T08:03:08.166Z,77.13
2019-05-02T08:04:11.184Z,76.84
2019-05-02T08:05:33.169Z,76.84
2019-05-02T08:06:08.669Z,76.46
2019-05-02T08:07:08.668Z,77.99
2019-05-02T08:08:08.673Z,76.52
2019-05-02T08:09:09.366Z,76.04
2019-05-02T08:10:16.484Z,76.33
2019-05-02T08:11:09.203Z,76.04
2019-05-02T08:12:09.670Z,76.56
2019-05-02T08:13:12.077Z,76.81
2019-05-02T08:14:09.672Z,75.76
2019-05-02T08:15:13.314Z,77.00
2019-05-02T08:16:13.172Z,76.94
2019-05-02T08:17:16.783Z,77.80
2019-05-02T08:18:10.176Z,76.56
2019-05-02T08:19:11.630Z,76.52
2019-05-02T08:20:13.670Z,77.13
2019-05-02T08:21:14.170Z,76.94
2019-05-02T08:22:13.795Z,77.23
2019-05-02T08:24:42.036Z,76.75
2019-05-02T08:25:45.413Z,75.79
2019-05-02T08:26:45.055Z,75.22
2019-05-02T08:27:44.562Z,75.18
2019-05-02T08:28:42.543Z,75.18
2019-05-02T08:29:42.548Z,76.52
2019-05-02T08:30:42.541Z,76.71
2019-05-02T08:33:18.825Z,72.44
2019-05-02T08:34:17.410Z,73.72
2019-05-02T08:35:17.382Z,73.72
2019-05-02T08:36:17.889Z,73.54
2019-05-02T08:37:21.382Z,72.77
2019-05-02T08:38:38.211Z,72.77
2019-05-02T08:39:17.885Z,70.95
2019-05-02T08:40:42.399Z,70.03
2019-05-02T08:41:20.058Z,69.93
2019-05-02T08:42:42.886Z,69.07
2019-05-02T08:43:40.170Z,69.35
2019-05-02T08:44:18.395Z,70.35
2019-05-02T08:45:18.882Z,72.03
2019-05-02T08:46:39.883Z,70.12
2019-05-02T08:47:19.470Z,69.74
2019-05-02T08:48:22.904Z,69.10
2019-05-02T08:52:22.075Z,68.18
2019-05-02T08:53:26.080Z,66.32
2019-05-02T08:54:22.127Z,66.89
2019-05-02T08:55:45.310Z,66.42
2019-05-02T08:56:22.878Z,66.45
2019-05-02T08:57:23.843Z,68.08
2019-05-02T08:58:22.582Z,68.27
2019-05-02T08:59:29.552Z,65.97
2019-05-02T09:00:23.077Z,65.20
2019-05-02T09:01:34.569Z,65.33
2019-05-02T09:02:26.047Z,64.95
2019-05-02T09:03:23.078Z,66.00
2019-05-02T09:04:29.111Z,64.63
2019-05-02T09:05:46.074Z,61.66
2019-05-02T09:06:24.174Z,62.07
2019-05-02T09:07:23.670Z,61.85
2019-05-02T09:08:46.189Z,64.15
2019-05-02T09:09:27.973Z,66.00
2019-05-02T09:10:28.078Z,65.81
2019-05-02T09:11:24.077Z,64.76
2019-05-02T09:12:24.591Z,62.65
2019-05-02T09:13:29.102Z,62.16
2019-05-02T09:14:24.581Z,63.99
2019-05-02T09:15:24.578Z,62.07
2019-05-02T09:16:29.283Z,61.75
2019-05-02T09:17:35.051Z,61.88
2019-05-02T09:18:30.027Z,60.82
2019-05-02T09:19:26.583Z,62.26
2019-05-02T09:20:27.578Z,61.98
2019-05-02T09:21:34.244Z,59.86
2019-05-02T09:22:51.444Z,60.82
2019-05-02T09:23:27.484Z,59.93
2019-05-02T09:24:28.079Z,60.41
2019-05-02T09:25:26.079Z,61.94
2019-05-02T09:26:35.061Z,62.81
2019-05-02T09:27:31.822Z,63.48
2019-05-02T09:28:26.585Z,60.79
2019-05-02T09:29:26.583Z,61.37
2019-05-02T09:30:26.581Z,63.67
2019-05-02T09:31:26.579Z,64.66
2019-05-02T09:32:27.079Z,63.79
2019-05-02T09:33:32.087Z,63.42
2019-05-02T09:34:27.079Z,64.22
2019-05-02T09:35:27.080Z,64.98
2019-05-02T09:36:52.763Z,62.01
2019-05-02T09:37:26.806Z,60.82
2019-05-02T09:38:32.889Z,60.15
2019-05-02T09:39:32.712Z,59.86
2019-05-02T09:40:28.078Z,60.44
2019-05-02T09:41:34.508Z,60.53
2019-05-02T09:42:28.087Z,60.82
2019-05-02T09:43:29.207Z,59.74
2019-05-02T09:44:56.865Z,60.60
2019-05-02T09:45:33.416Z,59.83
2019-05-02T09:46:28.579Z,59.67
2019-05-02T09:47:33.265Z,60.35
2019-05-02T09:48:28.176Z,59.86
2019-05-02T09:49:29.079Z,61.21
2019-05-02T09:50:53.579Z,59.58
2019-05-02T09:51:29.079Z,60.72
2019-05-02T09:52:32.187Z,60.57
2019-05-02T09:53:29.579Z,62.68
2019-05-02T09:54:29.580Z,61.33
2019-05-02T09:55:33.579Z,61.33
2019-05-02T09:56:30.083Z,61.65
2019-05-02T09:57:31.607Z,60.60
2019-05-02T09:58:31.868Z,58.96
2019-05-02T09:59:30.468Z,58.45
2019-05-02T10:00:32.168Z,57.81
2019-05-02T10:01:55.579Z,58.07
2019-05-02T10:02:32.424Z,59.70
2019-05-02T10:03:51.924Z,59.22
2019-05-02T10:04:52.470Z,60.18
2019-05-02T10:05:32.215Z,60.08
2019-05-02T10:06:32.163Z,59.12
2019-05-02T10:07:57.469Z,60.38
2019-05-02T10:08:32.097Z,59.03
2019-05-02T10:09:32.411Z,57.78
2019-05-02T10:10:32.394Z,59.61
2019-05-02T10:11:32.260Z,60.47
2019-05-02T10:12:35.582Z,60.95
2019-05-02T10:13:32.081Z,58.94
2019-05-02T10:14:33.065Z,57.01
2019-05-02T10:15:32.753Z,57.01
2019-05-02T10:16:32.605Z,57.01
2019-05-02T10:17:37.584Z,56.95
2019-05-02T10:18:33.049Z,57.68
2019-05-02T10:19:32.769Z,59.44
2019-05-02T10:20:36.265Z,58.87
2019-05-02T10:21:33.083Z,57.33
2019-05-02T10:22:58.112Z,56.27
2019-05-02T10:23:33.624Z,56.27
2019-05-02T10:24:38.014Z,56.95
2019-05-02T10:25:38.720Z,55.99
2019-05-02T10:26:33.581Z,55.99
2019-05-02T10:27:33.580Z,56.66
2019-05-02T10:28:41.768Z,56.85
2019-05-02T10:29:57.179Z,56.98
2019-05-02T10:30:35.976Z,56.21
2019-05-02T10:31:37.616Z,56.78
2019-05-02T10:32:34.585Z,57.93
2019-05-02T10:33:38.084Z,57.36
2019-05-02T10:34:34.580Z,56.78
2019-05-02T10:35:40.369Z,58.03
2019-05-02T10:36:35.116Z,57.71
2019-05-02T10:37:56.081Z,58.32
2019-05-02T10:40:15.460Z,57.26
2019-05-02T10:41:12.008Z,57.45
2019-05-02T10:42:32.565Z,56.76
2019-05-02T10:43:32.930Z,56.85
2019-05-02T10:44:14.789Z,55.79
2019-05-02T10:45:15.091Z,55.99
2019-05-02T10:46:37.591Z,56.46
2019-05-02T10:47:34.809Z,57.84
2019-05-02T10:48:24.968Z,56.49
2019-05-02T10:49:12.483Z,53.90
2019-05-02T10:50:36.797Z,53.23
2019-05-02T10:51:12.292Z,54.09
2019-05-02T10:52:12.375Z,53.23
2019-05-02T10:53:15.699Z,52.55
2019-05-02T10:54:20.593Z,53.03
2019-05-02T10:55:14.791Z,54.19
2019-05-02T10:56:16.790Z,54.28
2019-05-02T10:57:12.805Z,54.93
2019-05-02T10:58:35.758Z,55.69
2019-05-02T10:59:13.289Z,56.88
2019-05-02T11:00:13.290Z,56.21
2019-05-02T11:01:12.793Z,56.11
2019-05-02T11:02:37.793Z,55.51
2019-05-02T11:03:13.793Z,54.83
2019-05-02T11:04:13.790Z,55.12
2019-05-02T11:05:16.985Z,55.22
2019-05-02T11:06:37.279Z,55.02
2019-05-02T11:08:49.588Z,54.13
2019-05-02T11:10:12.249Z,51.93
2019-05-02T11:11:12.563Z,53.56
2019-05-02T11:11:53.536Z,52.22
2019-05-02T11:12:56.160Z,52.02
2019-05-02T11:13:53.407Z,52.79
2019-05-02T11:14:51.687Z,54.90
2019-05-02T11:16:12.461Z,52.34
2019-05-02T11:16:52.635Z,52.34
2019-05-02T11:17:52.770Z,52.14
2019-05-02T11:19:15.602Z,52.24
2019-05-02T11:20:13.541Z,52.34
2019-05-02T11:20:52.553Z,52.53
2019-05-02T11:22:14.535Z,53.30
2019-05-02T11:23:12.735Z,53.03
2019-05-02T11:25:25.744Z,52.36
2019-05-02T11:26:27.218Z,51.79
2019-05-02T11:27:25.748Z,52.48
2019-05-02T11:28:28.247Z,52.00
2019-05-02T11:29:52.619Z,49.69
2019-05-02T11:30:41.959Z,48.54
2019-05-02T11:31:26.252Z,46.04
2019-05-02T11:32:49.204Z,46.45
2019-05-02T11:33:26.748Z,47.70
2019-05-02T11:34:32.653Z,49.33
2019-05-02T11:35:26.748Z,47.92
2019-05-02T11:37:58.500Z,48.69
2019-05-02T11:39:08.503Z,47.82
2019-05-02T11:40:26.939Z,47.27
2019-05-02T11:41:02.535Z,46.71
2019-05-02T11:42:03.440Z,45.97
2019-05-02T11:43:02.752Z,46.45
2019-05-02T11:44:02.881Z,45.00
2019-05-02T11:45:30.006Z,44.62
2019-05-02T11:46:02.541Z,44.35
2019-05-02T11:47:01.802Z,44.15
2019-05-02T11:48:01.759Z,44.62
2019-05-02T11:52:06.606Z,46.66
2019-05-02T11:53:09.271Z,44.01
2019-05-02T11:54:09.338Z,44.68
2019-05-02T11:55:07.122Z,44.22
2019-05-02T11:56:11.609Z,42.48
2019-05-02T11:57:07.113Z,41.71
2019-05-02T11:58:09.892Z,42.50
2019-05-02T11:59:07.613Z,42.68
2019-05-02T12:00:09.051Z,42.58
2019-05-02T12:01:07.613Z,44.59
2019-05-02T12:02:17.500Z,43.33
2019-05-02T12:03:08.114Z,43.74
2019-05-02T12:04:29.115Z,42.87
2019-05-02T12:05:08.114Z,41.61
2019-05-02T12:06:12.650Z,43.84
2019-05-02T12:07:08.616Z,41.13
2019-05-02T12:08:12.144Z,39.57
2019-05-02T12:09:08.615Z,39.86
2019-05-02T12:10:09.112Z,41.69
2019-05-02T12:11:13.968Z,42.56
2019-05-02T12:12:09.113Z,44.56
2019-05-02T12:13:19.114Z,43.98
2019-05-02T12:14:09.614Z,41.55
2019-05-02T12:15:11.931Z,42.32
2019-05-02T12:16:09.623Z,43.19
2019-05-02T12:17:09.615Z,42.44
2019-05-02T12:18:09.615Z,42.93
2019-05-02T12:19:14.950Z,41.20
2019-05-02T12:20:11.882Z,41.61
2019-05-02T12:21:11.912Z,42.70
2019-05-02T12:22:12.935Z,42.93
2019-05-02T12:23:32.080Z,40.34
2019-05-02T12:24:12.529Z,40.94
2019-05-02T12:25:14.115Z,41.55
2019-05-02T12:26:12.345Z,39.12
2019-05-02T12:27:32.117Z,38.06
2019-05-02T12:28:33.050Z,38.17
2019-05-02T12:29:12.216Z,38.95
2019-05-02T12:30:15.118Z,38.39
2019-05-02T12:31:13.225Z,36.76
2019-05-02T12:33:43.004Z,37.03
2019-05-02T12:34:43.012Z,37.71
2019-05-02T12:35:46.520Z,36.54
2019-05-02T12:36:46.447Z,35.96
2019-05-02T12:37:47.096Z,36.04
2019-05-02T12:38:43.536Z,35.93
2019-05-02T12:39:44.012Z,39.32
2019-05-02T12:40:48.449Z,39.34
2019-05-02T12:41:44.233Z,35.83
2019-05-02T12:42:44.013Z,36.33
2019-05-02T12:43:44.023Z,37.11
2019-05-02T12:44:44.512Z,35.75
2019-05-02T12:45:48.013Z,36.24
2019-05-02T12:46:44.513Z,37.01
2019-05-02T12:47:44.512Z,34.99
2019-05-02T12:48:45.014Z,34.53
2019-05-02T12:49:45.026Z,33.75
2019-05-02T12:50:45.031Z,32.76
2019-05-02T12:51:49.102Z,32.67
2019-05-02T12:52:46.477Z,33.83
2019-05-02T12:53:45.513Z,34.20
2019-05-02T12:54:46.974Z,34.36
2019-05-02T12:55:45.513Z,34.65
2019-05-02T12:57:12.498Z,34.55
2019-05-02T12:57:46.014Z,34.77
2019-05-02T12:58:46.011Z,33.80
2019-05-02T12:59:46.022Z,34.38
2019-05-02T13:00:48.516Z,34.28
2019-05-02T13:01:46.514Z,34.77
2019-05-02T13:02:50.017Z,34.30
2019-05-02T13:03:46.519Z,34.28
2019-05-02T13:06:18.285Z,33.81
2019-05-02T13:07:18.305Z,32.26
2019-05-02T13:08:21.905Z,32.26
2019-05-02T13:09:18.792Z,33.34
2019-05-02T13:10:18.791Z,33.34
2019-05-02T13:11:18.792Z,33.94
2019-05-02T13:12:18.795Z,32.68
2019-05-02T13:13:22.792Z,32.41
2019-05-02T13:14:19.803Z,32.02
2019-05-02T13:15:18.682Z,31.94
2019-05-02T13:16:19.292Z,32.62
2019-05-02T13:17:19.793Z,31.35
2019-05-02T13:18:23.346Z,31.82
2019-05-02T13:19:37.096Z,32.02
2019-05-02T13:20:22.270Z,33.49
2019-05-02T13:21:21.574Z,32.91
2019-05-02T13:22:21.804Z,30.97
2019-05-02T13:23:22.431Z,31.74
2019-05-02T13:24:22.917Z,33.98
2019-05-02T13:25:27.321Z,31.95
2019-05-02T13:26:24.951Z,30.79
2019-05-02T13:27:22.719Z,31.08
2019-05-02T13:28:22.315Z,31.58
2019-05-02T13:30:56.564Z,31.87
2019-05-02T13:31:54.029Z,32.67
2019-05-02T13:34:24.312Z,30.61
2019-05-02T13:35:24.306Z,29.33
2019-05-02T13:36:28.306Z,31.26
2019-05-02T13:37:24.803Z,32.42
2019-05-02T13:38:24.807Z,33.69
2019-05-02T13:39:27.240Z,34.85
2019-05-02T13:40:24.810Z,35.35
2019-05-02T13:41:29.305Z,33.36
2019-05-02T13:42:46.308Z,32.17
2019-05-02T13:43:25.306Z,34.59
2019-05-02T13:44:25.307Z,35.94
2019-05-02T13:45:25.806Z,34.61
2019-05-02T13:46:26.797Z,31.89